Time;durP1;ratioP1;P1;durP2;ratioP2;P2;SDS_P1;SDS_P2;PMS_P1;PMS_P2;Temp;Humidity;BMP_temperature;BMP_pressure;BME280_temperature;BME280_humidity;BME280_pressure;Samples;Min_cycle;Max_cycle;Signal;HPM_P1;HPM_P2
2023/08/16 00:01:33;;;;;;;8.70;7.90;;;20.80;96.50;;;;;;6085149;23;20610;-88
2023/08/16 00:04:03;;;;;;;8.35;7.55;;;20.80;96.40;;;;;;6134619;23;20179;-88
2023/08/16 00:06:29;;;;;;;8.70;7.90;;;20.80;96.40;;;;;;6109439;23;20611;-87
2023/08/16 00:08:58;;;;;;;8.70;7.90;;;20.80;96.50;;;;;;6159121;23;20206;-88
2023/08/16 00:11:25;;;;;;;8.82;7.97;;;20.80;96.50;;;;;;6159563;23;20142;-89
2023/08/16 00:13:51;;;;;;;8.32;7.53;;;20.80;96.60;;;;;;6159288;23;20181;-89
2023/08/16 00:16:17;;;;;;;8.07;7.38;;;20.70;96.80;;;;;;6136723;23;20625;-88
2023/08/16 00:18:50;;;;;;;8.68;7.80;;;20.80;96.50;;;;;;6136951;23;20150;-88
2023/08/16 00:21:16;;;;;;;8.43;7.63;;;20.80;96.50;;;;;;6111482;23;20189;-88
2023/08/16 00:23:46;;;;;;;8.18;7.38;;;20.70;96.40;;;;;;6160727;23;20220;-88
2023/08/16 00:26:12;;;;;;;8.48;7.65;;;20.80;96.50;;;;;;6111484;23;20209;-88
2023/08/16 00:28:42;;;;;;;8.88;7.97;;;20.80;96.40;;;;;;6161422;23;20499;-88
2023/08/16 00:31:08;;;;;;;8.35;7.55;;;20.80;96.50;;;;;;6111561;23;20225;-88
2023/08/16 00:33:34;;;;;;;7.88;7.18;;;20.80;96.50;;;;;;6136379;23;20155;-89
2023/08/16 00:36:00;;;;;;;8.15;7.40;;;20.80;96.60;;;;;;6136720;23;20151;-89
2023/08/16 00:38:25;;;;;;;8.90;8.00;;;20.70;96.40;;;;;;6161059;23;20471;-90
2023/08/16 00:40:57;;;;;;;8.13;7.35;;;20.70;96.40;;;;;;6136608;23;20150;-89
2023/08/16 00:43:27;;;;;;;8.20;7.40;;;20.70;96.40;;;;;;6111559;23;20269;-88
2023/08/16 00:45:57;;;;;;;9.30;8.40;;;20.70;96.50;;;;;;6087445;23;20150;-88
2023/08/16 00:48:22;;;;;;;8.65;7.85;;;20.70;96.40;;;;;;6057986;23;20194;-88
2023/08/16 00:50:52;;;;;;;8.00;7.22;;;20.70;96.50;;;;;;6157630;23;20149;-88
2023/08/16 00:53:18;;;;;;;8.60;7.80;;;20.70;96.80;;;;;;6081949;23;20622;-89
2023/08/16 00:55:44;;;;;;;8.95;8.05;;;20.80;96.50;;;;;;6131100;23;20643;-87
2023/08/16 00:58:10;;;;;;;8.77;7.97;;;20.80;96.30;;;;;;6156413;23;20162;-89
2023/08/16 01:00:41;;;;;;;8.18;7.38;;;20.70;96.50;;;;;;6132063;23;20159;-89
2023/08/16 01:03:07;;;;;;;8.52;7.72;;;20.80;96.40;;;;;;6082419;23;20508;-88
2023/08/16 01:05:33;;;;;;;8.13;7.35;;;20.70;96.40;;;;;;6132149;23;20182;-88
2023/08/16 01:07:59;;;;;;;8.70;7.90;;;20.70;96.40;;;;;;6130879;23;20567;-90
2023/08/16 01:10:48;;;;;;;8.98;8.07;;;20.70;96.50;;;;;;6131584;23;20149;-88
2023/08/16 01:13:15;;;;;;;8.85;7.95;;;20.70;96.40;;;;;;6084365;23;20156;-89
2023/08/16 01:15:42;;;;;;;8.60;7.80;;;20.70;96.50;;;;;;6131877;23;20199;-88
2023/08/16 01:18:08;;;;;;;8.65;7.85;;;20.70;96.50;;;;;;6156538;23;20163;-88
2023/08/16 01:20:39;;;;;;;8.65;7.75;;;20.70;96.40;;;;;;6156446;23;20139;-89
2023/08/16 01:23:07;;;;;;;8.60;7.78;;;20.70;96.40;;;;;;6082679;23;20187;-89
2023/08/16 01:25:56;;;;;;;9.00;8.10;;;20.70;96.50;;;;;;6156736;23;20140;-88
2023/08/16 01:28:22;;;;;;;8.15;7.45;;;20.70;96.40;;;;;;6060961;23;20155;-88
2023/08/16 01:30:58;;;;;;;9.35;8.45;;;20.70;96.40;;;;;;6131991;23;20235;-88
2023/08/16 01:33:24;;;;;;;8.50;7.70;;;20.80;96.50;;;;;;6084666;23;20151;-88
2023/08/16 01:35:54;;;;;;;8.63;7.82;;;20.70;96.40;;;;;;6131463;23;20209;-88
2023/08/16 01:38:24;;;;;;;8.48;7.68;;;20.70;96.40;;;;;;6082713;23;20212;-88
2023/08/16 01:41:05;;;;;;;9.13;8.23;;;20.70;96.40;;;;;;6106502;23;20151;-89
2023/08/16 01:43:31;;;;;;;8.40;7.60;;;20.80;96.40;;;;;;6158023;23;20214;-88
2023/08/16 01:45:57;;;;;;;8.18;7.38;;;20.80;96.20;;;;;;6131813;23;20143;-88
2023/08/16 01:48:23;;;;;;;8.23;7.43;;;20.80;96.30;;;;;;6135963;23;20622;-87
2023/08/16 01:50:53;;;;;;;8.32;7.53;;;20.80;96.20;;;;;;6187805;23;20131;-89
2023/08/16 01:53:19;;;;;;;8.05;7.25;;;20.70;96.20;;;;;;6063753;23;20170;-88
2023/08/16 01:55:45;;;;;;;8.20;7.40;;;20.70;96.10;;;;;;6137098;23;20208;-88
2023/08/16 01:58:16;;;;;;;8.50;7.70;;;20.70;96.10;;;;;;6141754;23;20245;-89
2023/08/16 02:00:46;;;;;;;8.98;8.18;;;20.70;96.10;;;;;;6095020;23;20162;-89
2023/08/16 02:03:12;;;;;;;8.77;7.50;;;20.70;96.20;;;;;;6119977;23;20190;-88
2023/08/16 02:05:38;;;;;;;8.73;7.88;;;20.80;96.20;;;;;;6195996;23;20162;-89
2023/08/16 02:08:04;;;;;;;9.18;8.27;;;20.80;96.10;;;;;;6143596;23;20143;-88
2023/08/16 02:10:30;;;;;;;8.30;7.50;;;20.70;96.10;;;;;;6145461;23;20524;-88
2023/08/16 02:12:56;;;;;;;8.55;7.75;;;20.90;96.10;;;;;;6145520;23;20147;-87
2023/08/16 02:15:22;;;;;;;8.30;7.53;;;20.80;96.00;;;;;;6170562;23;20131;-88
2023/08/16 02:17:52;;;;;;;8.35;7.50;;;20.80;96.00;;;;;;6161223;23;20142;-89
2023/08/16 02:20:28;;;;;;;8.73;7.88;;;20.90;96.00;;;;;;6087728;23;20165;-89
2023/08/16 02:22:57;;;;;;;8.80;7.78;;;20.80;95.90;;;;;;6087131;23;20190;-88
2023/08/16 02:25:28;;;;;;;8.40;7.50;;;20.80;95.90;;;;;;6111582;23;20161;-89
2023/08/16 02:27:59;;;;;;;8.85;7.97;;;20.90;95.80;;;;;;6087002;23;20667;-88
2023/08/16 02:30:25;;;;;;;8.25;7.45;;;20.90;95.80;;;;;;6111365;23;20625;-89
2023/08/16 02:32:56;;;;;;;8.90;8.00;;;20.90;95.80;;;;;;6160301;23;20146;-87
2023/08/16 02:35:22;;;;;;;8.18;7.38;;;20.90;95.70;;;;;;6087188;23;20158;-88
2023/08/16 02:37:48;;;;;;;8.90;8.00;;;20.90;95.80;;;;;;6136427;23;20214;-87
2023/08/16 02:40:14;;;;;;;7.95;7.22;;;20.90;95.80;;;;;;6160913;23;20143;-88
2023/08/16 02:42:40;;;;;;;8.13;7.32;;;20.90;95.70;;;;;;6160788;23;20868;-88
2023/08/16 02:45:07;;;;;;;7.97;7.28;;;20.90;95.70;;;;;;6136150;23;20150;-86
2023/08/16 02:47:32;;;;;;;7.45;6.75;;;20.90;95.60;;;;;;6135842;23;20191;-88
2023/08/16 02:49:58;;;;;;;8.15;7.38;;;20.90;95.70;;;;;;6136186;23;20193;-88
2023/08/16 02:52:24;;;;;;;8.88;7.97;;;20.90;95.60;;;;;;6160705;23;20213;-87
2023/08/16 02:54:54;;;;;;;7.88;7.07;;;20.90;95.70;;;;;;6135936;23;20217;-88
2023/08/16 02:57:20;;;;;;;8.40;7.60;;;20.90;95.60;;;;;;6110788;23;20158;-87
2023/08/16 02:59:51;;;;;;;8.43;7.53;;;20.80;95.60;;;;;;6160713;23;20131;-89
2023/08/16 03:02:17;;;;;;;8.02;7.22;;;20.90;95.60;;;;;;6063476;23;20217;-88
2023/08/16 03:04:47;;;;;;;8.48;7.68;;;20.90;95.60;;;;;;6160368;23;20135;-90
2023/08/16 03:07:17;;;;;;;7.68;6.95;;;20.80;95.50;;;;;;6109986;23;20240;-89
2023/08/16 03:09:47;;;;;;;8.05;7.20;;;20.90;95.50;;;;;;6062392;23;20182;-88
2023/08/16 03:12:13;;;;;;;8.27;7.47;;;20.90;95.50;;;;;;6062362;23;20610;-89
2023/08/16 03:14:38;;;;;;;7.95;7.25;;;21.00;95.50;;;;;;6135367;23;20229;-88
2023/08/16 03:17:09;;;;;;;8.90;8.00;;;20.90;95.40;;;;;;6135626;23;20157;-89
2023/08/16 03:19:35;;;;;;;8.50;7.60;;;20.90;95.40;;;;;;6109908;23;20197;-87
2023/08/16 03:22:02;;;;;;;8.30;7.50;;;20.90;95.30;;;;;;6135533;23;20150;-88
2023/08/16 03:24:35;;;;;;;7.88;7.18;;;20.90;95.30;;;;;;6135862;23;20591;-88
2023/08/16 03:27:01;;;;;;;8.32;7.40;;;20.90;95.30;;;;;;6062720;23;20205;-88
2023/08/16 03:29:31;;;;;;;8.00;7.30;;;20.90;95.30;;;;;;6135190;23;20505;-88
2023/08/16 03:31:57;;;;;;;8.38;7.53;;;20.90;95.20;;;;;;6085432;23;20159;-88
2023/08/16 03:34:24;;;;;;;7.85;7.13;;;20.90;95.30;;;;;;6184178;23;20147;-89
2023/08/16 03:36:54;;;;;;;8.48;7.68;;;20.90;95.20;;;;;;6135390;23;20146;-87
2023/08/16 03:39:20;;;;;;;7.60;6.88;;;21.00;95.30;;;;;;6110065;23;20273;-87
2023/08/16 03:41:46;;;;;;;8.40;7.60;;;20.90;95.30;;;;;;6159301;23;20159;-87
2023/08/16 03:44:16;;;;;;;8.00;7.20;;;21.00;95.30;;;;;;6159612;23;20158;-87
2023/08/16 03:46:41;;;;;;;8.05;7.25;;;20.90;95.30;;;;;;6080927;23;20496;-87
2023/08/16 03:49:07;;;;;;;8.13;7.32;;;20.90;95.20;;;;;;6129637;23;20583;-88
2023/08/16 03:51:35;;;;;;;7.93;7.13;;;20.90;95.30;;;;;;6156248;23;20132;-88
2023/08/16 03:54:01;;;;;;;7.90;7.10;;;20.90;95.40;;;;;;6156562;23;20567;-88
2023/08/16 03:56:27;;;;;;;8.27;7.47;;;20.90;95.30;;;;;;6129609;23;20248;-87
2023/08/16 03:58:57;;;;;;;7.85;7.15;;;20.90;95.20;;;;;;6105644;23;20281;-88
2023/08/16 04:01:23;;;;;;;7.90;7.10;;;21.00;95.20;;;;;;6080778;23;20159;-88
2023/08/16 04:03:53;;;;;;;8.43;7.63;;;20.90;95.20;;;;;;6105677;23;20246;-87
2023/08/16 04:06:20;;;;;;;8.45;7.65;;;20.90;95.30;;;;;;6079606;23;20162;-87
2023/08/16 04:08:46;;;;;;;8.27;7.47;;;21.00;95.20;;;;;;6156201;23;20138;-86
2023/08/16 04:11:12;;;;;;;8.65;7.85;;;20.90;95.30;;;;;;6130204;23;20131;-87
2023/08/16 04:13:38;;;;;;;7.88;7.07;;;20.90;95.30;;;;;;6130364;23;20278;-87
2023/08/16 04:16:04;;;;;;;7.95;7.25;;;20.90;95.40;;;;;;6106160;23;20173;-87
2023/08/16 04:18:34;;;;;;;8.40;7.60;;;20.90;95.50;;;;;;6105582;23;20151;-88
2023/08/16 04:21:00;;;;;;;7.75;6.97;;;20.90;95.40;;;;;;6080940;23;20179;-86
2023/08/16 04:23:26;;;;;;;8.30;7.50;;;20.90;95.40;;;;;;6105594;23;20167;-87
2023/08/16 04:25:52;;;;;;;8.38;7.55;;;20.90;95.30;;;;;;6129777;23;20214;-87
2023/08/16 04:28:23;;;;;;;8.43;7.63;;;20.90;95.40;;;;;;6105279;23;20178;-88
2023/08/16 04:30:53;;;;;;;8.60;7.80;;;20.90;95.50;;;;;;6104106;23;20155;-89
2023/08/16 04:33:19;;;;;;;8.10;7.30;;;20.90;95.50;;;;;;6056420;23;20558;-88
2023/08/16 04:35:44;;;;;;;8.48;7.63;;;20.90;95.40;;;;;;6129420;23;20136;-89
2023/08/16 04:38:10;;;;;;;8.18;7.38;;;20.90;95.50;;;;;;6105327;23;20425;-88
2023/08/16 04:40:36;;;;;;;7.60;6.90;;;20.90;95.40;;;;;;6105039;23;20509;-89
2023/08/16 04:43:03;;;;;;;8.90;8.00;;;20.90;95.50;;;;;;6105230;23;20445;-89
2023/08/16 04:45:29;;;;;;;7.95;7.25;;;20.90;95.40;;;;;;6129582;23;20140;-88
2023/08/16 04:47:59;;;;;;;8.18;7.40;;;20.90;95.50;;;;;;6155328;23;20694;-89
2023/08/16 04:50:28;;;;;;;8.20;7.40;;;20.90;95.50;;;;;;6056756;23;20595;-88
2023/08/16 04:52:54;;;;;;;8.52;7.65;;;20.90;95.50;;;;;;6080685;23;20160;-88
2023/08/16 04:55:24;;;;;;;7.97;7.18;;;20.80;95.50;;;;;;6129348;23;20482;-89
2023/08/16 04:57:50;;;;;;;8.52;7.70;;;20.90;95.50;;;;;;6080122;23;20151;-88
2023/08/16 05:00:20;;;;;;;8.02;7.22;;;20.80;95.50;;;;;;6129400;23;20580;-89
2023/08/16 05:02:46;;;;;;;7.85;7.07;;;20.80;95.50;;;;;;6057453;23;20187;-89
2023/08/16 05:05:17;;;;;;;7.70;7.00;;;20.80;95.50;;;;;;6131214;23;20128;-88
2023/08/16 05:07:43;;;;;;;7.85;7.05;;;20.80;95.50;;;;;;6057186;23;20241;-90
2023/08/16 05:10:09;;;;;;;8.07;7.28;;;20.80;95.60;;;;;;6157302;23;20162;-88
2023/08/16 05:12:35;;;;;;;8.25;7.43;;;20.80;95.60;;;;;;6082239;23;20144;-89
2023/08/16 05:15:00;;;;;;;8.07;7.35;;;20.80;95.60;;;;;;6106623;23;20155;-87
2023/08/16 05:17:26;;;;;;;7.80;7.10;;;20.80;95.70;;;;;;6131481;23;20162;-88
2023/08/16 05:19:57;;;;;;;8.57;7.68;;;20.80;95.60;;;;;;6130968;23;20143;-87
2023/08/16 05:22:24;;;;;;;8.13;7.32;;;20.80;95.60;;;;;;6033575;23;20183;-87
2023/08/16 05:24:50;;;;;;;8.18;7.38;;;20.80;95.60;;;;;;6130810;23;20201;-88
2023/08/16 05:27:16;;;;;;;8.00;7.30;;;20.80;95.70;;;;;;6106882;23;20144;-89
2023/08/16 05:29:42;;;;;;;8.25;7.30;;;20.90;95.70;;;;;;6130772;23;20143;-89
2023/08/16 05:32:09;;;;;;;7.88;7.07;;;20.80;95.70;;;;;;6130819;23;20647;-88
2023/08/16 05:34:39;;;;;;;7.80;7.03;;;20.80;95.80;;;;;;6130638;23;20202;-89
2023/08/16 05:37:09;;;;;;;7.90;7.10;;;20.80;95.70;;;;;;6057270;23;20954;-88
2023/08/16 05:39:35;;;;;;;7.85;7.15;;;20.80;95.70;;;;;;6057729;23;20155;-88
2023/08/16 05:42:02;;;;;;;7.50;6.82;;;20.70;95.80;;;;;;6106202;23;20151;-89
2023/08/16 05:44:28;;;;;;;8.27;7.47;;;20.80;95.80;;;;;;6130537;23;20515;-88
2023/08/16 05:46:53;;;;;;;7.32;6.63;;;20.70;95.80;;;;;;6113218;23;20214;-88
2023/08/16 05:49:19;;;;;;;8.05;7.25;;;20.80;96.20;;;;;;6160056;23;20583;-89
2023/08/16 05:51:49;;;;;;;8.13;7.28;;;20.80;96.40;;;;;;6160391;23;20155;-88
2023/08/16 05:54:18;;;;;;;7.32;6.63;;;20.80;96.70;;;;;;6110489;23;20151;-89
2023/08/16 05:56:49;;;;;;;7.57;6.88;;;20.90;96.80;;;;;;6062148;23;20163;-88
2023/08/16 05:59:15;;;;;;;7.95;7.15;;;20.90;96.90;;;;;;6086049;23;20609;-88
2023/08/16 06:01:41;;;;;;;7.80;7.00;;;20.90;97.00;;;;;;6135307;23;20151;-87
2023/08/16 06:04:08;;;;;;;7.20;6.50;;;20.90;97.10;;;;;;6135265;23;20867;-88
2023/08/16 06:06:37;;;;;;;7.57;6.80;;;20.90;97.10;;;;;;6135374;23;20147;-89
2023/08/16 06:09:03;;;;;;;7.57;6.88;;;20.90;97.10;;;;;;6109835;23;20161;-88
2023/08/16 06:11:29;;;;;;;7.18;6.47;;;20.90;97.20;;;;;;6135286;23;20259;-88
2023/08/16 06:13:55;;;;;;;7.20;6.50;;;20.90;97.50;;;;;;6135290;23;20189;-89
2023/08/16 06:16:24;;;;;;;7.20;6.50;;;20.90;97.10;;;;;;6159522;23;20139;-88
2023/08/16 06:18:53;;;;;;;6.90;6.30;;;20.90;97.50;;;;;;6085449;23;20732;-89
2023/08/16 06:21:22;;;;;;;7.25;6.55;;;21.00;97.70;;;;;;6085705;23;20154;-89
2023/08/16 06:23:53;;;;;;;7.25;6.55;;;20.90;97.60;;;;;;6085656;23;20709;-88
2023/08/16 06:26:22;;;;;;;8.02;7.22;;;20.90;97.50;;;;;;6086285;23;20459;-88
2023/08/16 06:28:51;;;;;;;7.38;6.68;;;21.00;97.50;;;;;;6109775;23;20154;-88
2023/08/16 06:31:20;;;;;;;8.05;7.25;;;20.90;97.60;;;;;;6085838;23;20533;-86
2023/08/16 06:33:50;;;;;;;7.88;7.07;;;20.90;97.60;;;;;;6111790;23;20165;-88
2023/08/16 06:36:20;;;;;;;7.88;7.07;;;20.90;98.00;;;;;;6086520;23;20499;-88
2023/08/16 06:38:48;;;;;;;8.52;7.63;;;20.90;97.80;;;;;;6135435;23;20186;-88
2023/08/16 06:41:16;;;;;;;8.88;7.47;;;20.90;97.80;;;;;;6110763;23;20233;-86
2023/08/16 06:43:47;;;;;;;8.02;7.22;;;20.90;98.00;;;;;;6111768;23;20194;-89
2023/08/16 06:46:18;;;;;;;8.40;7.60;;;20.90;97.90;;;;;;6054839;23;20167;-91
2023/08/16 06:48:50;;;;;;;8.32;7.53;;;20.90;98.10;;;;;;6078337;23;20196;-89
2023/08/16 06:51:18;;;;;;;8.38;7.57;;;20.90;98.10;;;;;;6031644;23;20155;-89
2023/08/16 06:53:46;;;;;;;8.13;7.32;;;20.90;98.00;;;;;;6077052;23;20663;-87
2023/08/16 06:56:16;;;;;;;8.15;7.35;;;20.90;97.90;;;;;;6052873;23;20160;-88
2023/08/16 06:58:49;;;;;;;8.25;7.38;;;20.90;98.00;;;;;;6053694;23;20277;-88
2023/08/16 07:01:19;;;;;;;8.48;7.68;;;20.90;98.20;;;;;;6077691;23;20626;-87
2023/08/16 07:03:48;;;;;;;8.65;7.78;;;20.90;98.40;;;;;;6052877;23;20192;-88
2023/08/16 07:06:15;;;;;;;10.25;7.88;;;20.80;98.40;;;;;;6030026;23;20221;-88
2023/08/16 07:08:43;;;;;;;8.65;7.75;;;20.90;98.50;;;;;;6078074;23;20152;-89
2023/08/16 07:11:10;;;;;;;8.45;7.55;;;20.90;98.50;;;;;;6029957;23;20256;-89
2023/08/16 07:13:41;;;;;;;9.15;8.13;;;20.80;98.60;;;;;;6078581;23;20156;-89
2023/08/16 07:16:08;;;;;;;8.80;7.90;;;20.90;98.90;;;;;;6058157;23;20185;-89
2023/08/16 07:18:35;;;;;;;9.38;8.18;;;20.90;99.10;;;;;;6112522;23;20162;-86
2023/08/16 07:21:02;;;;;;;9.18;7.45;;;20.90;99.00;;;;;;6063722;23;20290;-88
2023/08/16 07:23:29;;;;;;;10.00;8.75;;;21.00;98.80;;;;;;6111194;23;20261;-88
2023/08/16 07:25:59;;;;;;;8.75;7.85;;;21.00;98.70;;;;;;6087266;23;20155;-89
2023/08/16 07:28:29;;;;;;;9.18;8.18;;;21.00;98.60;;;;;;6063411;23;20534;-89
2023/08/16 07:30:56;;;;;;;8.88;7.97;;;21.00;98.60;;;;;;6088345;23;20590;-89
2023/08/16 07:33:22;;;;;;;9.00;8.10;;;21.00;98.40;;;;;;6187753;23;20146;-88
2023/08/16 07:36:03;;;;;;;8.85;7.95;;;21.00;98.40;;;;;;6137125;23;20154;-89
2023/08/16 07:38:37;;;;;;;8.30;7.50;;;21.00;98.40;;;;;;6097196;23;20160;-89
2023/08/16 07:41:03;;;;;;;8.05;7.25;;;21.10;98.10;;;;;;6049216;23;20168;-88
2023/08/16 07:43:29;;;;;;;8.57;7.68;;;21.00;98.20;;;;;;6072755;23;20544;-88
2023/08/16 07:45:55;;;;;;;8.93;7.90;;;21.10;98.20;;;;;;6096805;23;20184;-89
2023/08/16 07:48:31;;;;;;;9.32;7.40;;;21.10;98.20;;;;;;6068276;23;20248;-88
2023/08/16 07:50:57;;;;;;;8.77;7.72;;;21.10;98.20;;;;;;6022042;23;20164;-88
2023/08/16 07:53:23;;;;;;;8.13;7.28;;;21.00;98.20;;;;;;6020676;23;20188;-88
2023/08/16 07:55:49;;;;;;;9.13;7.78;;;21.10;98.30;;;;;;6020818;23;20153;-89
2023/08/16 07:58:15;;;;;;;9.98;7.55;;;21.10;98.20;;;;;;6021040;23;20238;-89
2023/08/16 08:00:42;;;;;;;9.38;8.32;;;21.20;98.00;;;;;;6020425;23;20479;-88
2023/08/16 08:03:09;;;;;;;7.57;6.78;;;21.20;97.80;;;;;;6071049;23;20187;-89
2023/08/16 08:05:35;;;;;;;8.85;7.72;;;21.20;97.70;;;;;;6085276;23;20143;-87
2023/08/16 08:08:01;;;;;;;8.25;7.22;;;21.10;97.80;;;;;;6085545;23;20151;-88
2023/08/16 08:10:31;;;;;;;8.27;7.43;;;21.20;98.00;;;;;;6134205;23;20155;-87
2023/08/16 08:12:57;;;;;;;8.32;7.53;;;21.30;97.50;;;;;;6074105;23;20160;-87
2023/08/16 08:15:23;;;;;;;8.50;7.65;;;21.30;97.50;;;;;;6102550;23;20153;-87
2023/08/16 08:17:52;;;;;;;8.10;7.30;;;21.20;97.80;;;;;;6079020;23;20640;-87
2023/08/16 08:20:19;;;;;;;8.30;7.40;;;21.30;97.40;;;;;;6102197;23;20196;-88
2023/08/16 08:22:46;;;;;;;8.77;7.20;;;21.30;97.20;;;;;;6079467;23;20184;-88
2023/08/16 08:25:19;;;;;;;7.25;6.55;;;21.40;97.00;;;;;;6111415;23;20145;-87
2023/08/16 08:27:46;;;;;;;7.63;6.90;;;21.40;97.00;;;;;;6081869;23;20155;-88
2023/08/16 08:30:26;;;;;;;;;;;;;;;;;;;;;
2023/08/16 08:32:58;;;;;;;7.28;6.57;;;21.40;96.50;;;;;;6050488;23;20198;-87
2023/08/16 08:35:33;;;;;;;7.07;6.40;;;21.40;96.30;;;;;;6027195;23;20215;-87
2023/08/16 08:38:04;;;;;;;7.32;6.63;;;21.50;96.20;;;;;;6029587;23;20187;-87
2023/08/16 08:40:30;;;;;;;6.95;6.25;;;21.40;96.30;;;;;;6101149;23;20153;-87
2023/08/16 08:42:57;;;;;;;8.88;6.50;;;21.40;96.20;;;;;;6078902;23;20244;-88
2023/08/16 08:45:23;;;;;;;7.20;6.50;;;21.40;96.30;;;;;;6129791;23;20553;-87
2023/08/16 08:47:49;;;;;;;7.63;6.82;;;21.40;96.40;;;;;;6105565;23;20199;-87
2023/08/16 08:50:14;;;;;;;6.50;5.90;;;21.30;96.50;;;;;;6081794;23;20153;-87
2023/08/16 08:52:48;;;;;;;6.93;6.22;;;21.40;96.20;;;;;;6079813;23;20144;-86
2023/08/16 08:55:14;;;;;;;6.90;6.20;;;21.40;96.10;;;;;;6106322;23;20140;-86
2023/08/16 08:57:40;;;;;;;8.13;7.15;;;21.40;95.90;;;;;;6106587;23;20222;-87
2023/08/16 09:00:14;;;;;;;8.40;6.45;;;21.40;96.30;;;;;;6134737;23;20135;-87
2023/08/16 09:02:44;;;;;;;7.63;6.80;;;21.50;96.10;;;;;;6084891;23;20205;-89
2023/08/16 09:05:12;;;;;;;6.38;5.78;;;21.40;96.10;;;;;;6092729;23;20174;-87
2023/08/16 09:07:40;;;;;;;7.05;6.35;;;21.50;95.70;;;;;;6111206;23;20156;-88
2023/08/16 09:10:06;;;;;;;6.43;5.82;;;21.50;95.90;;;;;;6135909;23;20198;-87
2023/08/16 09:12:36;;;;;;;7.07;6.38;;;21.40;95.80;;;;;;6110180;23;20144;-87
2023/08/16 09:15:03;;;;;;;6.50;5.80;;;21.50;95.90;;;;;;6085780;23;20190;-86
2023/08/16 09:17:33;;;;;;;7.22;5.78;;;21.40;95.60;;;;;;6133356;23;20234;-87
2023/08/16 09:20:06;;;;;;;6.82;6.13;;;21.40;95.50;;;;;;6060624;23;20155;-87
2023/08/16 09:22:34;;;;;;;6.50;5.63;;;21.50;95.30;;;;;;6063374;23;20298;-88
2023/08/16 09:25:03;;;;;;;5.97;5.38;;;21.50;95.20;;;;;;6109498;23;20147;-85
2023/08/16 09:27:31;;;;;;;6.25;5.65;;;21.50;94.90;;;;;;6135019;23;20190;-87
2023/08/16 09:29:57;;;;;;;6.68;6.05;;;21.50;94.70;;;;;;6134579;23;20147;-89
2023/08/16 09:32:27;;;;;;;6.25;5.65;;;21.50;94.90;;;;;;6110595;23;20567;-88
2023/08/16 09:34:53;;;;;;;6.72;6.03;;;21.60;94.90;;;;;;6112717;23;20132;-88
2023/08/16 09:37:20;;;;;;;6.53;5.30;;;21.50;95.00;;;;;;6112666;23;20151;-88
2023/08/16 09:39:56;;;;;;;6.63;5.97;;;21.40;94.90;;;;;;6134463;23;20538;-87
2023/08/16 09:42:31;;;;;;;6.00;5.40;;;21.50;94.90;;;;;;6076616;23;20187;-86
2023/08/16 09:45:03;;;;;;;6.32;5.70;;;21.50;94.80;;;;;;6053484;23;20172;-88
2023/08/16 09:47:30;;;;;;;6.43;5.40;;;21.50;94.60;;;;;;6054976;23;20203;-88
2023/08/16 09:50:03;;;;;;;7.15;5.90;;;21.50;94.50;;;;;;6049523;23;20156;-87
2023/08/16 09:52:30;;;;;;;6.90;5.60;;;21.60;94.30;;;;;;6028379;23;20160;-88
2023/08/16 09:54:57;;;;;;;5.65;5.05;;;21.60;94.20;;;;;;6098637;23;20220;-88
2023/08/16 09:57:27;;;;;;;6.57;5.22;;;21.60;94.10;;;;;;6026075;23;20321;-87
2023/08/16 10:00:00;;;;;;;5.93;5.32;;;21.60;94.00;;;;;;5979129;23;20161;-88
2023/08/16 10:02:32;;;;;;;5.70;5.20;;;21.70;93.90;;;;;;6025234;23;20520;-87
2023/08/16 10:05:03;;;;;;;6.07;5.45;;;21.60;93.70;;;;;;6048294;23;20156;-87
2023/08/16 10:07:35;;;;;;;5.30;4.80;;;21.60;93.60;;;;;;6048334;23;20203;-88
2023/08/16 10:10:02;;;;;;;7.05;4.93;;;21.60;93.40;;;;;;6026193;23;20208;-88
2023/08/16 10:12:30;;;;;;;6.22;5.35;;;21.60;93.20;;;;;;6080148;23;20144;-87
2023/08/16 10:15:02;;;;;;;6.05;5.10;;;21.60;93.30;;;;;;6056807;23;20141;-87
2023/08/16 10:17:29;;;;;;;5.82;5.22;;;21.60;93.00;;;;;;6005192;23;20218;-87
2023/08/16 10:20:00;;;;;;;5.63;4.90;;;21.60;93.20;;;;;;6069424;23;20159;-87
2023/08/16 10:22:30;;;;;;;5.10;4.60;;;21.60;93.20;;;;;;6060639;23;20267;-87
2023/08/16 10:24:57;;;;;;;4.88;4.47;;;21.70;93.00;;;;;;6134440;23;20142;-86
2023/08/16 10:27:23;;;;;;;4.57;4.13;;;21.60;92.80;;;;;;6133138;23;20146;-87
2023/08/16 10:29:51;;;;;;;4.25;3.85;;;21.70;92.30;;;;;;6132949;23;20184;-87
2023/08/16 10:32:24;;;;;;;4.07;3.67;;;21.80;92.10;;;;;;6134310;23;20151;-88
2023/08/16 10:34:56;;;;;;;4.63;4.22;;;21.80;91.70;;;;;;6097648;23;20147;-87
2023/08/16 10:37:37;;;;;;;4.65;4.25;;;21.80;91.60;;;;;;6092519;23;20235;-88
2023/08/16 10:40:04;;;;;;;6.32;4.85;;;21.80;91.70;;;;;;6083647;23;20147;-86
2023/08/16 10:42:29;;;;;;;5.57;4.97;;;21.80;92.10;;;;;;6087249;23;20186;-89
2023/08/16 10:44:55;;;;;;;5.20;4.70;;;21.70;92.50;;;;;;6112361;23;20136;-88
2023/08/16 10:47:30;;;;;;;6.10;5.32;;;21.80;92.30;;;;;;6122921;23;20194;-87
2023/08/16 10:49:56;;;;;;;5.95;4.90;;;21.80;92.60;;;;;;6087578;23;20150;-87
2023/08/16 10:52:29;;;;;;;5.72;5.05;;;21.70;92.30;;;;;;6138433;23;20165;-87
2023/08/16 10:54:55;;;;;;;5.53;4.40;;;21.80;92.30;;;;;;6161011;23;20151;-88
2023/08/16 10:57:25;;;;;;;4.82;4.15;;;21.80;91.80;;;;;;6160605;23;20162;-84
2023/08/16 11:00:03;;;;;;;5.05;4.60;;;21.90;91.80;;;;;;6160747;23;20164;-84
2023/08/16 11:02:31;;;;;;;5.00;4.50;;;21.90;92.00;;;;;;6136227;23;20185;-84
2023/08/16 11:04:58;;;;;;;5.85;4.53;;;21.80;91.70;;;;;;6158571;23;20189;-87
2023/08/16 11:07:28;;;;;;;6.47;5.18;;;21.90;91.80;;;;;;6134360;23;20233;-86
2023/08/16 11:09:59;;;;;;;5.35;4.45;;;21.90;91.80;;;;;;6136884;23;20205;-87
2023/08/16 11:12:30;;;;;;;8.23;4.60;;;21.90;91.60;;;;;;6160435;23;20147;-85
2023/08/16 11:14:57;;;;;;;5.38;4.35;;;21.90;91.40;;;;;;6136353;23;20154;-86
2023/08/16 11:17:26;;;;;;;5.43;3.78;;;21.90;90.90;;;;;;6161578;23;20470;-87
2023/08/16 11:19:53;;;;;;;5.10;4.60;;;21.90;91.20;;;;;;6137501;23;20154;-85
2023/08/16 11:22:24;;;;;;;8.13;4.78;;;21.80;90.90;;;;;;6074712;23;20160;-85
2023/08/16 11:24:53;;;;;;;5.57;4.47;;;21.90;90.80;;;;;;6024527;23;20269;-85
2023/08/16 11:27:22;;;;;;;4.85;4.35;;;21.90;90.60;;;;;;6072460;23;20164;-84
2023/08/16 11:29:49;;;;;;;5.10;4.03;;;21.90;90.30;;;;;;6047895;23;20148;-87
2023/08/16 11:32:28;;;;;;;5.65;4.05;;;21.90;90.60;;;;;;6073920;23;20156;-86
2023/08/16 11:34:58;;;;;;;4.47;4.05;;;21.90;90.60;;;;;;6014426;23;20159;-87
2023/08/16 11:37:28;;;;;;;5.20;4.70;;;22.00;90.30;;;;;;5994851;23;20162;-86
2023/08/16 11:40:07;;;;;;;4.72;4.28;;;21.90;90.50;;;;;;5990946;23;20166;-86
2023/08/16 11:42:37;;;;;;;4.75;4.25;;;21.90;90.50;;;;;;5918619;23;20186;-87
2023/08/16 11:45:19;;;;;;;5.88;4.20;;;21.90;90.40;;;;;;5940190;23;20476;-87
2023/08/16 11:47:51;;;;;;;4.00;3.60;;;21.90;90.20;;;;;;5985672;23;20252;-87
2023/08/16 11:50:20;;;;;;;5.32;3.90;;;21.90;89.90;;;;;;5987135;23;20579;-85
2023/08/16 11:53:00;;;;;;;4.43;4.00;;;22.00;89.40;;;;;;5962163;23;20232;-87
2023/08/16 11:55:29;;;;;;;4.32;3.92;;;22.00;89.50;;;;;;6047333;23;20160;-86
2023/08/16 11:58:08;;;;;;;4.47;3.88;;;22.00;89.30;;;;;;6047115;23;20280;-88
2023/08/16 12:00:41;;;;;;;4.50;4.00;;;22.00;88.50;;;;;;6042462;23;20184;-89
2023/08/16 12:03:11;;;;;;;4.68;4.07;;;22.00;88.50;;;;;;6002183;23;20244;-86
2023/08/16 12:05:42;;;;;;;4.70;4.28;;;22.00;88.30;;;;;;6017919;23;20180;-87
2023/08/16 12:08:12;;;;;;;4.63;4.22;;;22.00;88.30;;;;;;6027551;23;20254;-87
2023/08/16 12:10:40;;;;;;;4.70;3.90;;;22.00;88.70;;;;;;6053587;23;20187;-87
2023/08/16 12:13:16;;;;;;;4.38;3.97;;;22.00;88.10;;;;;;6030231;23;20195;-87
2023/08/16 12:15:44;;;;;;;5.50;4.32;;;22.00;87.70;;;;;;6058227;23;20156;-87
2023/08/16 12:18:14;;;;;;;4.50;4.10;;;22.00;87.80;;;;;;6079017;23;20164;-86
2023/08/16 12:20:52;;;;;;;4.57;4.00;;;22.00;87.60;;;;;;6057758;23;20243;-88
2023/08/16 12:23:29;;;;;;;5.10;3.97;;;22.00;87.40;;;;;;6017396;23;20661;-87
2023/08/16 12:25:57;;;;;;;5.00;3.45;;;22.00;87.20;;;;;;5974493;23;20173;-87
2023/08/16 12:28:35;;;;;;;4.15;3.75;;;22.00;86.60;;;;;;5994416;23;20590;-87
2023/08/16 12:31:06;;;;;;;3.63;3.33;;;22.00;86.10;;;;;;5976142;23;20165;-87
2023/08/16 12:33:33;;;;;;;3.80;3.40;;;22.10;85.90;;;;;;5967770;23;20210;-88
2023/08/16 12:36:04;;;;;;;3.85;3.40;;;22.10;85.40;;;;;;5942904;23;20162;-86
2023/08/16 12:38:31;;;;;;;4.30;3.40;;;22.10;85.30;;;;;;5944368;23;20162;-86
2023/08/16 12:41:04;;;;;;;3.60;3.30;;;22.00;85.00;;;;;;5971480;23;20213;-87
2023/08/16 12:43:37;;;;;;;3.50;3.20;;;22.10;84.90;;;;;;5943750;23;20191;-87
2023/08/16 12:46:08;;;;;;;4.82;3.60;;;22.10;84.80;;;;;;5966578;23;20154;-87
2023/08/16 12:48:35;;;;;;;3.88;3.20;;;22.00;85.10;;;;;;5918377;24;20206;-86
2023/08/16 12:51:05;;;;;;;3.60;3.30;;;22.00;84.60;;;;;;5915199;24;20163;-87
2023/08/16 12:53:38;;;;;;;3.50;3.20;;;22.00;84.30;;;;;;5928383;23;20216;-87
2023/08/16 12:56:05;;;;;;;3.63;2.90;;;22.00;84.20;;;;;;5999572;23;20165;-87